Time;durP1;ratioP1;P1;durP2;ratioP2;P2;SDS_P1;SDS_P2;PMS_P1;PMS_P2;Temp;Humidity;BMP_temperature;BMP_pressure;BME280_temperature;BME280_humidity;BME280_pressure;Samples;Min_cycle;Max_cycle;Signal;HPM_P1;HPM_P2
2024/01/11 00:02:48;;;;;;;24.45;11.48;;;;;;;;;;10383330;28;20067;-76
2024/01/11 00:07:51;;;;;;;22.67;11.93;;;;;;;;;;10391259;28;20045;-76
2024/01/11 00:12:54;;;;;;;21.20;10.82;;;;;;;;;;10393293;28;20049;-75
2024/01/11 00:17:59;;;;;;;24.33;10.65;;;;;;;;;;10384458;28;20042;-75
2024/01/11 00:23:04;;;;;;;;;;;;;;;;;;10379274;28;20583;-75
2024/01/11 00:28:07;;;;;;;17.65;9.50;;;;;;;;;;10389350;28;20389;-75
2024/01/11 00:33:11;;;;;;;23.33;10.73;;;;;;;;;;10383723;28;20038;-75
2024/01/11 00:38:15;;;;;;;24.60;12.13;;;;;;;;;;10382638;28;20049;-76
2024/01/11 00:43:18;;;;;;;21.50;12.50;;;;;;;;;;10385546;28;20044;-75
2024/01/11 00:48:23;;;;;;;24.55;10.90;;;;;;;;;;10387930;28;20045;-75
2024/01/11 00:53:30;;;;;;;26.33;11.20;;;;;;;;;;10389152;28;20045;-75
2024/01/11 00:58:33;;;;;;;21.67;10.70;;;;;;;;;;10394406;28;20533;-75
2024/01/11 01:03:38;;;;;;;22.40;10.88;;;;;;;;;;10396644;28;20065;-76
2024/01/11 01:08:41;;;;;;;20.40;9.25;;;;;;;;;;10393207;28;20051;-76
2024/01/11 01:13:44;;;;;;;21.45;10.63;;;;;;;;;;10392293;28;20053;-75
2024/01/11 01:18:49;;;;;;;22.25;10.52;;;;;;;;;;10385058;28;20057;-75
2024/01/11 01:23:52;;;;;;;21.55;11.07;;;;;;;;;;10391291;28;20096;-75
2024/01/11 01:28:55;;;;;;;26.50;11.98;;;;;;;;;;10392400;28;20060;-75
2024/01/11 01:34:00;;;;;;;19.67;9.82;;;;;;;;;;10401088;28;20117;-75
2024/01/11 01:39:03;;;;;;;18.42;9.35;;;;;;;;;;10395165;28;20045;-75
2024/01/11 01:44:07;;;;;;;26.63;11.15;;;;;;;;;;10393751;28;20042;-75
2024/01/11 01:49:12;;;;;;;20.95;10.48;;;;;;;;;;10397262;28;20664;-75
2024/01/11 01:54:16;;;;;;;20.23;10.32;;;;;;;;;;10400043;28;20041;-75
2024/01/11 01:59:20;;;;;;;20.13;10.18;;;;;;;;;;10393363;28;20037;-76
2024/01/11 02:04:25;;;;;;;18.10;8.82;;;;;;;;;;10392363;28;20046;-75
2024/01/11 02:09:30;;;;;;;21.33;9.73;;;;;;;;;;10396008;28;20042;-75
2024/01/11 02:14:34;;;;;;;21.58;9.73;;;;;;;;;;10385839;28;20395;-75
2024/01/11 02:19:38;;;;;;;19.08;9.68;;;;;;;;;;10379755;28;20482;-75
2024/01/11 02:24:43;;;;;;;18.80;9.05;;;;;;;;;;10392574;28;20030;-75
2024/01/11 02:29:46;;;;;;;20.00;8.90;;;;;;;;;;10387379;28;20054;-75
2024/01/11 02:34:49;;;;;;;20.40;9.65;;;;;;;;;;10387728;28;20095;-75
2024/01/11 02:39:54;;;;;;;14.93;8.27;;;;;;;;;;10393994;28;20080;-75
2024/01/11 02:44:57;;;;;;;19.52;9.35;;;;;;;;;;10387108;28;20049;-75
2024/01/11 02:50:01;;;;;;;16.95;9.20;;;;;;;;;;10384482;28;20053;-75
2024/01/11 02:55:06;;;;;;;18.42;9.13;;;;;;;;;;10381127;28;20050;-75
2024/01/11 03:00:10;;;;;;;20.88;8.93;;;;;;;;;;10395685;28;20057;-75
2024/01/11 03:05:14;;;;;;;20.30;9.30;;;;;;;;;;10384540;28;20132;-75
2024/01/11 03:10:18;;;;;;;18.20;9.10;;;;;;;;;;10385781;28;20053;-75
2024/01/11 03:15:22;;;;;;;17.13;8.95;;;;;;;;;;10386364;28;20072;-75
2024/01/11 03:20:25;;;;;;;18.13;8.10;;;;;;;;;;10392424;28;20072;-75
2024/01/11 03:25:30;;;;;;;17.45;8.68;;;;;;;;;;10402740;28;20033;-75
2024/01/11 03:30:34;;;;;;;20.05;8.88;;;;;;;;;;10393677;28;20037;-75
2024/01/11 03:35:38;;;;;;;15.07;7.68;;;;;;;;;;10394875;28;20069;-75
2024/01/11 03:40:43;;;;;;;16.00;7.80;;;;;;;;;;10390070;28;20136;-75
2024/01/11 03:45:46;;;;;;;14.73;7.18;;;;;;;;;;10386794;28;20068;-75
2024/01/11 03:50:49;;;;;;;16.25;8.50;;;;;;;;;;10389292;28;20068;-75
2024/01/11 03:55:54;;;;;;;16.92;8.60;;;;;;;;;;10389226;28;20125;-75
2024/01/11 04:00:57;;;;;;;20.08;8.98;;;;;;;;;;10389036;28;20045;-75
2024/01/11 04:06:00;;;;;;;19.08;8.40;;;;;;;;;;10382928;28;20420;-75
2024/01/11 04:11:05;;;;;;;15.35;8.25;;;;;;;;;;10387805;28;20046;-75
2024/01/11 04:16:09;;;;;;;17.42;8.75;;;;;;;;;;10397140;28;20033;-75
2024/01/11 04:21:22;;;;;;;23.65;11.07;;;;;;;;;;10387106;28;20044;-75
2024/01/11 04:26:26;;;;;;;19.77;9.85;;;;;;;;;;10393707;28;20046;-75
2024/01/11 04:31:30;;;;;;;19.38;9.65;;;;;;;;;;10394863;28;20041;-75
2024/01/11 04:36:33;;;;;;;22.17;10.23;;;;;;;;;;10396792;28;20041;-75
2024/01/11 04:41:39;;;;;;;23.15;10.38;;;;;;;;;;10387061;28;20051;-76
2024/01/11 04:46:42;;;;;;;19.13;9.70;;;;;;;;;;10391148;28;20076;-76
2024/01/11 04:51:45;;;;;;;21.77;9.82;;;;;;;;;;10382919;28;20041;-75
2024/01/11 04:56:50;;;;;;;21.58;9.98;;;;;;;;;;10388609;28;20076;-75
2024/01/11 05:01:53;;;;;;;23.27;10.55;;;;;;;;;;10378538;28;20062;-75
2024/01/11 05:06:56;;;;;;;21.25;10.23;;;;;;;;;;10416112;23;20062;-76
2024/01/11 05:12:01;;;;;;;19.77;10.20;;;;;;;;;;10366194;28;20038;-76
2024/01/11 05:17:04;;;;;;;22.67;11.07;;;;;;;;;;10364511;28;20046;-76
2024/01/11 05:22:08;;;;;;;24.55;11.38;;;;;;;;;;10365560;28;20054;-76
2024/01/11 05:27:13;;;;;;;24.95;10.80;;;;;;;;;;10366387;28;20529;-77
2024/01/11 05:32:16;;;;;;;22.65;11.10;;;;;;;;;;10367131;28;20042;-77
2024/01/11 05:37:20;;;;;;;25.52;10.38;;;;;;;;;;10364499;28;20546;-76
2024/01/11 05:42:25;;;;;;;22.27;10.55;;;;;;;;;;10364430;28;20045;-76
2024/01/11 05:47:29;;;;;;;22.30;10.23;;;;;;;;;;10362990;28;20054;-77
2024/01/11 05:52:32;;;;;;;19.17;9.50;;;;;;;;;;10360765;28;20041;-77
2024/01/11 05:57:36;;;;;;;25.08;11.80;;;;;;;;;;10364312;28;20710;-76
2024/01/11 06:02:40;;;;;;;19.67;9.90;;;;;;;;;;10358962;28;20050;-77
2024/01/11 06:07:43;;;;;;;21.08;10.13;;;;;;;;;;10366227;28;20048;-76
2024/01/11 06:12:48;;;;;;;22.13;10.32;;;;;;;;;;10363275;28;20057;-76
2024/01/11 06:17:51;;;;;;;19.10;10.25;;;;;;;;;;10369622;28;20061;-76
2024/01/11 06:22:54;;;;;;;23.17;11.00;;;;;;;;;;10364527;28;20124;-77
2024/01/11 06:27:59;;;;;;;22.35;10.60;;;;;;;;;;10360418;28;20612;-76
2024/01/11 06:33:03;;;;;;;24.25;10.63;;;;;;;;;;10359031;28;20046;-76
2024/01/11 06:38:07;;;;;;;23.92;11.40;;;;;;;;;;10362265;28;20136;-76
2024/01/11 06:43:12;;;;;;;21.70;10.02;;;;;;;;;;10355655;28;20042;-76
2024/01/11 06:48:16;;;;;;;26.70;11.93;;;;;;;;;;10358561;28;20149;-77
2024/01/11 06:53:19;;;;;;;25.67;12.18;;;;;;;;;;10362892;28;20216;-77
2024/01/11 06:58:24;;;;;;;34.33;14.32;;;;;;;;;;10363749;28;20050;-77
2024/01/11 07:03:27;;;;;;;36.70;17.70;;;;;;;;;;10356428;28;20247;-76
2024/01/11 07:08:32;;;;;;;47.55;21.45;;;;;;;;;;10358076;28;20535;-76
2024/01/11 07:13:37;;;;;;;41.97;18.33;;;;;;;;;;10356934;28;20030;-76
2024/01/11 07:18:40;;;;;;;29.70;14.60;;;;;;;;;;10361121;28;20697;-76
2024/01/11 07:23:44;;;;;;;31.17;14.40;;;;;;;;;;10358447;28;20676;-76
2024/01/11 07:28:48;;;;;;;31.67;15.18;;;;;;;;;;10360578;28;20042;-76
2024/01/11 07:33:51;;;;;;;30.55;14.32;;;;;;;;;;10358701;28;20048;-76
2024/01/11 07:38:55;;;;;;;31.58;14.73;;;;;;;;;;10359875;28;20061;-76
2024/01/11 07:43:59;;;;;;;30.17;14.57;;;;;;;;;;10358800;28;20050;-77
2024/01/11 07:49:03;;;;;;;28.90;13.60;;;;;;;;;;10358426;28;20054;-76
2024/01/11 07:54:07;;;;;;;26.52;13.40;;;;;;;;;;10358138;28;20079;-76
2024/01/11 07:59:14;;;;;;;28.13;13.27;;;;;;;;;;10354686;28;20052;-76
2024/01/11 08:04:17;;;;;;;23.98;12.02;;;;;;;;;;10358245;28;20054;-77
2024/01/11 08:09:21;;;;;;;26.73;11.77;;;;;;;;;;10358272;28;20096;-77
2024/01/11 08:14:26;;;;;;;26.15;11.80;;;;;;;;;;10359098;28;20045;-76
2024/01/11 08:19:30;;;;;;;31.47;13.43;;;;;;;;;;10360195;28;20037;-77
2024/01/11 08:24:34;;;;;;;30.05;15.02;;;;;;;;;;10355465;28;20698;-77
2024/01/11 08:29:40;;;;;;;37.28;17.42;;;;;;;;;;10356357;28;21325;-77
2024/01/11 08:34:43;;;;;;;32.08;16.00;;;;;;;;;;10360264;28;20124;-76
2024/01/11 08:39:47;;;;;;;28.23;13.95;;;;;;;;;;10361415;28;20065;-76
2024/01/11 08:44:52;;;;;;;28.42;12.43;;;;;;;;;;10361431;28;20043;-76
2024/01/11 08:49:56;;;;;;;25.70;12.30;;;;;;;;;;10360781;28;20050;-76
2024/01/11 08:54:59;;;;;;;27.92;13.05;;;;;;;;;;10366245;28;20054;-76
2024/01/11 09:00:06;;;;;;;23.42;11.68;;;;;;;;;;10360622;28;20072;-76
2024/01/11 09:05:09;;;;;;;24.95;12.68;;;;;;;;;;10364299;28;20041;-77
2024/01/11 09:10:13;;;;;;;23.40;12.38;;;;;;;;;;10359268;28;20046;-76
2024/01/11 09:15:17;;;;;;;25.70;11.88;;;;;;;;;;10364230;28;20053;-76
2024/01/11 09:20:21;;;;;;;28.48;12.77;;;;;;;;;;10362536;28;20061;-77
2024/01/11 09:25:24;;;;;;;24.63;11.05;;;;;;;;;;10358571;28;20143;-76
2024/01/11 09:30:29;;;;;;;23.63;11.32;;;;;;;;;;10364325;28;20049;-77
2024/01/11 09:35:32;;;;;;;24.23;11.98;;;;;;;;;;10362993;28;20133;-76
2024/01/11 09:40:35;;;;;;;33.40;16.88;;;;;;;;;;10360685;28;20067;-77
2024/01/11 09:45:40;;;;;;;31.60;14.88;;;;;;;;;;10361088;28;20062;-76
2024/01/11 09:50:44;;;;;;;36.73;16.50;;;;;;;;;;10363425;28;20049;-77
2024/01/11 09:55:47;;;;;;;35.45;17.38;;;;;;;;;;10364840;28;20056;-76
2024/01/11 10:00:57;;;;;;;42.78;18.58;;;;;;;;;;10360631;28;20049;-77
2024/01/11 10:06:03;;;;;;;28.83;13.73;;;;;;;;;;10360826;28;20132;-77
2024/01/11 10:11:06;;;;;;;26.10;12.60;;;;;;;;;;10363064;28;20056;-77
2024/01/11 10:16:13;;;;;;;34.95;17.08;;;;;;;;;;10362273;28;20108;-77
2024/01/11 10:21:16;;;;;;;36.40;18.83;;;;;;;;;;10360176;28;20078;-77
2024/01/11 10:26:21;;;;;;;29.08;15.20;;;;;;;;;;10364572;28;20155;-77
2024/01/11 10:31:27;;;;;;;25.90;12.98;;;;;;;;;;10360231;28;20041;-77
2024/01/11 10:36:32;;;;;;;45.35;22.95;;;;;;;;;;10362055;28;20068;-77
2024/01/11 10:41:41;;;;;;;26.40;14.90;;;;;;;;;;10360637;28;20128;-77
2024/01/11 10:46:47;;;;;;;44.10;21.08;;;;;;;;;;10362325;28;20041;-77
2024/01/11 10:51:57;;;;;;;27.92;15.30;;;;;;;;;;10359411;28;20061;-76
2024/01/11 10:57:01;;;;;;;31.33;13.90;;;;;;;;;;10362518;28;20049;-77
2024/01/11 11:02:10;;;;;;;24.08;12.77;;;;;;;;;;10360346;28;20057;-77
2024/01/11 11:07:14;;;;;;;29.33;14.88;;;;;;;;;;10360063;28;20691;-77
2024/01/11 11:12:19;;;;;;;41.78;20.48;;;;;;;;;;10361275;28;20052;-77
2024/01/11 11:17:23;;;;;;;34.35;16.85;;;;;;;;;;10359116;28;20053;-77
2024/01/11 11:22:28;;;;;;;32.88;16.13;;;;;;;;;;10359371;28;20052;-77
2024/01/11 11:27:39;;;;;;;27.65;13.85;;;;;;;;;;10512863;27;20395;-77
2024/01/11 11:32:46;;;;;;;28.58;15.43;;;;;;;;;;10429851;28;20037;-77
2024/01/11 11:37:53;;;;;;;30.17;15.48;;;;;;;;;;10429905;28;20060;-77
2024/01/11 11:42:58;;;;;;;31.33;15.82;;;;;;;;;;10433180;28;20041;-77
2024/01/11 11:48:02;;;;;;;31.80;16.90;;;;;;;;;;10432973;28;20073;-77
2024/01/11 11:53:05;;;;;;;24.63;12.98;;;;;;;;;;10432439;28;20136;-77
2024/01/11 11:58:14;;;;;;;22.27;12.30;;;;;;;;;;10430018;28;20051;-77
2024/01/11 12:03:18;;;;;;;24.80;11.73;;;;;;;;;;10447920;28;23901;-77
2024/01/11 12:08:22;;;;;;;28.70;15.38;;;;;;;;;;10470195;28;20079;-77
2024/01/11 12:13:30;;;;;;;29.30;15.25;;;;;;;;;;10473490;28;20055;-77
2024/01/11 12:18:34;;;;;;;35.27;18.30;;;;;;;;;;10470955;28;20532;-77
2024/01/11 12:23:39;;;;;;;40.17;20.35;;;;;;;;;;10453223;28;20296;-78
2024/01/11 12:28:44;;;;;;;39.43;19.33;;;;;;;;;;10426644;28;20061;-77
2024/01/11 12:33:48;;;;;;;33.13;17.42;;;;;;;;;;10427375;28;20517;-77
2024/01/11 12:38:52;;;;;;;29.45;15.65;;;;;;;;;;10390748;28;20068;-77
2024/01/11 12:43:57;;;;;;;33.90;17.48;;;;;;;;;;10396758;28;20053;-77
2024/01/11 12:49:00;;;;;;;30.92;16.85;;;;;;;;;;10404642;28;20052;-77
2024/01/11 12:54:05;;;;;;;26.88;13.07;;;;;;;;;;10405471;28;20060;-77
2024/01/11 12:59:11;;;;;;;26.45;14.05;;;;;;;;;;10406034;28;20624;-77
2024/01/11 13:04:14;;;;;;;29.10;15.48;;;;;;;;;;10403616;28;20033;-77
2024/01/11 13:09:17;;;;;;;35.20;16.40;;;;;;;;;;10404852;28;20542;-77
2024/01/11 13:14:22;;;;;;;24.35;11.95;;;;;;;;;;10406436;28;20052;-77
2024/01/11 13:19:26;;;;;;;22.90;12.10;;;;;;;;;;10404285;28;20041;-77
2024/01/11 13:24:29;;;;;;;25.65;13.43;;;;;;;;;;10401003;28;20049;-77
2024/01/11 13:29:34;;;;;;;25.80;13.80;;;;;;;;;;10399195;28;20037;-77
2024/01/11 13:34:37;;;;;;;29.25;14.63;;;;;;;;;;10395479;28;20503;-77
2024/01/11 13:39:40;;;;;;;31.15;15.65;;;;;;;;;;10394798;28;20454;-77
2024/01/11 13:44:46;;;;;;;24.45;13.32;;;;;;;;;;10391800;28;20042;-77
2024/01/11 13:49:49;;;;;;;20.15;9.93;;;;;;;;;;10395063;28;20049;-78
2024/01/11 13:54:52;;;;;;;27.00;13.45;;;;;;;;;;10423985;28;20172;-77
2024/01/11 13:59:57;;;;;;;26.42;14.10;;;;;;;;;;10439751;28;20041;-77
2024/01/11 14:05:00;;;;;;;20.73;11.60;;;;;;;;;;10409228;28;20043;-77
2024/01/11 14:10:05;;;;;;;28.77;14.55;;;;;;;;;;10401309;28;20049;-77
2024/01/11 14:15:12;;;;;;;26.00;13.32;;;;;;;;;;10400687;28;20044;-77
2024/01/11 14:20:15;;;;;;;27.42;13.93;;;;;;;;;;10398802;28;20080;-77
2024/01/11 14:25:20;;;;;;;25.25;14.73;;;;;;;;;;10422613;28;20170;-78
2024/01/11 14:30:25;;;;;;;28.42;13.80;;;;;;;;;;10434299;28;20124;-78
2024/01/11 14:35:28;;;;;;;37.40;18.85;;;;;;;;;;10436432;28;20398;-78
2024/01/11 14:40:31;;;;;;;24.63;14.05;;;;;;;;;;10409166;28;20045;-77
2024/01/11 14:45:36;;;;;;;25.95;14.00;;;;;;;;;;10399906;28;20041;-77
2024/01/11 14:50:39;;;;;;;20.75;11.43;;;;;;;;;;10398667;28;20041;-77
2024/01/11 14:55:43;;;;;;;28.75;14.77;;;;;;;;;;10404709;28;20076;-77
2024/01/11 15:00:48;;;;;;;30.05;14.75;;;;;;;;;;10403090;28;20383;-78
2024/01/11 15:05:52;;;;;;;29.02;15.48;;;;;;;;;;10401601;28;20069;-77
2024/01/11 15:10:56;;;;;;;29.58;15.13;;;;;;;;;;10394614;28;20077;-77
2024/01/11 15:16:01;;;;;;;23.17;13.48;;;;;;;;;;10412608;28;20041;-75
2024/01/11 15:21:05;;;;;;;26.77;14.18;;;;;;;;;;10410313;28;20030;-75
2024/01/11 15:26:08;;;;;;;25.13;13.35;;;;;;;;;;10422809;28;20045;-77
2024/01/11 15:31:14;;;;;;;18.20;10.30;;;;;;;;;;10436546;28;20607;-77
2024/01/11 15:36:17;;;;;;;22.60;12.43;;;;;;;;;;10441009;28;20153;-77
2024/01/11 15:41:20;;;;;;;21.52;10.60;;;;;;;;;;10435434;28;20048;-77
2024/01/11 15:46:26;;;;;;;20.23;10.85;;;;;;;;;;10438746;28;20753;-77
2024/01/11 15:51:29;;;;;;;17.75;9.90;;;;;;;;;;10435971;28;20299;-76
2024/01/11 15:56:32;;;;;;;16.40;9.38;;;;;;;;;;10444664;28;20037;-76
2024/01/11 16:01:37;;;;;;;15.52;8.88;;;;;;;;;;10441278;28;20036;-76
2024/01/11 16:06:44;;;;;;;19.77;10.15;;;;;;;;;;10431811;28;20433;-76
2024/01/11 16:11:48;;;;;;;21.10;10.93;;;;;;;;;;10431692;28;20111;-76
2024/01/11 16:16:53;;;;;;;16.00;9.20;;;;;;;;;;10441109;28;20094;-76
2024/01/11 16:21:56;;;;;;;20.27;10.65;;;;;;;;;;10459469;28;20056;-76
2024/01/11 16:27:00;;;;;;;19.00;10.43;;;;;;;;;;10434332;28;20049;-76
2024/01/11 16:32:05;;;;;;;20.88;11.30;;;;;;;;;;10443015;28;20054;-76
2024/01/11 16:37:09;;;;;;;19.13;11.18;;;;;;;;;;10437606;28;20465;-76
2024/01/11 16:42:12;;;;;;;23.65;11.43;;;;;;;;;;10442431;28;20582;-76
2024/01/11 16:47:17;;;;;;;19.58;10.93;;;;;;;;;;10441935;28;20494;-76
2024/01/11 16:52:21;;;;;;;18.45;10.70;;;;;;;;;;10446864;28;20045;-76
2024/01/11 16:57:24;;;;;;;18.15;9.55;;;;;;;;;;10439386;28;20399;-76
2024/01/11 17:02:29;;;;;;;19.10;10.20;;;;;;;;;;10427962;28;20041;-76
2024/01/11 17:07:33;;;;;;;16.08;9.85;;;;;;;;;;10437571;22;20044;-75
2024/01/11 17:12:36;;;;;;;22.08;11.63;;;;;;;;;;10406121;28;20052;-76
2024/01/11 17:17:41;;;;;;;20.20;10.48;;;;;;;;;;10407281;28;20201;-76
2024/01/11 17:22:45;;;;;;;18.23;10.07;;;;;;;;;;10407067;28;20054;-76
2024/01/11 17:27:48;;;;;;;21.27;10.25;;;;;;;;;;10403465;28;20292;-76
2024/01/11 17:32:55;;;;;;;20.13;10.18;;;;;;;;;;10406388;28;20052;-76
2024/01/11 17:37:58;;;;;;;21.48;10.50;;;;;;;;;;10404664;28;20136;-76
2024/01/11 17:43:02;;;;;;;20.75;10.73;;;;;;;;;;10415938;28;20045;-76
2024/01/11 17:48:07;;;;;;;26.02;12.02;;;;;;;;;;10409241;28;20060;-76
2024/01/11 17:53:10;;;;;;;23.00;11.93;;;;;;;;;;10400005;28;20108;-76
2024/01/11 17:58:13;;;;;;;24.85;12.75;;;;;;;;;;10401440;28;20069;-76
2024/01/11 18:03:18;;;;;;;24.00;12.82;;;;;;;;;;10404511;28;20124;-76
2024/01/11 18:08:21;;;;;;;27.17;12.60;;;;;;;;;;10408884;28;20041;-76
2024/01/11 18:13:25;;;;;;;30.92;14.23;;;;;;;;;;10404649;28;20050;-76
2024/01/11 18:18:30;;;;;;;37.53;16.02;;;;;;;;;;10399547;28;20046;-76
2024/01/11 18:23:33;;;;;;;32.20;15.25;;;;;;;;;;10403339;28;20041;-76
2024/01/11 18:28:37;;;;;;;27.77;15.32;;;;;;;;;;10395665;28;20077;-75
2024/01/11 18:33:43;;;;;;;31.88;15.90;;;;;;;;;;10403755;28;20033;-76
2024/01/11 18:38:46;;;;;;;;;;;;;;;;;;10423026;28;20047;-76
2024/01/11 18:43:49;;;;;;;28.17;13.85;;;;;;;;;;10401562;28;20051;-75
2024/01/11 18:48:54;;;;;;;28.63;15.60;;;;;;;;;;10406493;28;20048;-76
2024/01/11 18:53:57;;;;;;;29.73;15.85;;;;;;;;;;10399614;28;20098;-75
2024/01/11 18:59:00;;;;;;;32.00;15.90;;;;;;;;;;10400669;28;20049;-75
2024/01/11 19:04:06;;;;;;;30.35;15.35;;;;;;;;;;10409267;28;20651;-76
2024/01/11 19:09:09;;;;;;;31.20;15.80;;;;;;;;;;10398202;28;20041;-76
2024/01/11 19:14:14;;;;;;;28.55;14.43;;;;;;;;;;10402514;28;20041;-76
2024/01/11 19:19:18;;;;;;;28.00;15.10;;;;;;;;;;10393639;28;20044;-75
2024/01/11 19:24:22;;;;;;;31.58;14.88;;;;;;;;;;10399543;28;20057;-76
2024/01/11 19:29:26;;;;;;;33.83;16.92;;;;;;;;;;10397644;28;20053;-76
2024/01/11 19:34:32;;;;;;;28.77;14.68;;;;;;;;;;10404305;28;20052;-76
2024/01/11 19:39:35;;;;;;;28.02;14.52;;;;;;;;;;10400499;28;20410;-76
2024/01/11 19:44:38;;;;;;;27.38;15.27;;;;;;;;;;10402857;28;20045;-75
2024/01/11 19:49:43;;;;;;;38.30;17.42;;;;;;;;;;10407150;28;20050;-76
2024/01/11 19:54:47;;;;;;;36.30;17.52;;;;;;;;;;10414614;28;20064;-76
2024/01/11 19:59:50;;;;;;;33.72;16.00;;;;;;;;;;10408152;28;20415;-76
2024/01/11 20:04:55;;;;;;;38.92;18.80;;;;;;;;;;10411266;28;20135;-76
2024/01/11 20:09:59;;;;;;;37.50;17.15;;;;;;;;;;10416778;28;20048;-75
2024/01/11 20:15:02;;;;;;;42.05;18.80;;;;;;;;;;10417611;28;20091;-76
2024/01/11 20:20:09;;;;;;;36.47;17.52;;;;;;;;;;10413189;28;20106;-76
2024/01/11 20:25:12;;;;;;;35.40;18.17;;;;;;;;;;10418011;28;20127;-76
2024/01/11 20:30:16;;;;;;;37.35;18.10;;;;;;;;;;10405569;28;20037;-76
2024/01/11 20:35:20;;;;;;;42.45;19.00;;;;;;;;;;10408158;28;20049;-76
2024/01/11 20:40:23;;;;;;;37.58;18.08;;;;;;;;;;10404078;28;20103;-75
2024/01/11 20:45:27;;;;;;;42.70;18.40;;;;;;;;;;10404884;28;20041;-76
2024/01/11 20:50:31;;;;;;;43.58;19.45;;;;;;;;;;10404264;28;20041;-76
2024/01/11 20:55:35;;;;;;;39.08;18.38;;;;;;;;;;10406673;28;20650;-76
2024/01/11 21:00:38;;;;;;;44.95;20.65;;;;;;;;;;10409672;28;20048;-76
2024/01/11 21:05:47;;;;;;;42.05;17.92;;;;;;;;;;10407351;28;20042;-76
2024/01/11 21:10:50;;;;;;;41.13;19.13;;;;;;;;;;10407507;28;20111;-76
2024/01/11 21:15:53;;;;;;;44.15;18.50;;;;;;;;;;10407380;28;20148;-76
2024/01/11 21:20:58;;;;;;;38.42;19.42;;;;;;;;;;10410093;28;20041;-76
2024/01/11 21:26:02;;;;;;;37.65;18.08;;;;;;;;;;10418453;28;20049;-76
2024/01/11 21:31:05;;;;;;;38.70;18.52;;;;;;;;;;10418255;28;20045;-75
2024/01/11 21:36:10;;;;;;;39.97;17.73;;;;;;;;;;10412710;28;20049;-76
2024/01/11 21:41:13;;;;;;;38.25;17.92;;;;;;;;;;10408485;28;20037;-76
2024/01/11 21:46:16;;;;;;;36.33;17.65;;;;;;;;;;10408849;28;20061;-76
2024/01/11 21:51:21;;;;;;;39.13;17.58;;;;;;;;;;10403382;28;20060;-76
2024/01/11 21:56:24;;;;;;;36.45;17.10;;;;;;;;;;10407588;28;20042;-76
2024/01/11 22:01:29;;;;;;;34.95;17.38;;;;;;;;;;10413286;28;20085;-75
2024/01/11 22:06:34;;;;;;;37.13;17.33;;;;;;;;;;10401845;28;20060;-75
2024/01/11 22:11:37;;;;;;;31.10;15.60;;;;;;;;;;10402658;28;20037;-75
2024/01/11 22:16:41;;;;;;;33.28;15.23;;;;;;;;;;10402908;28;20411;-75
2024/01/11 22:21:45;;;;;;;34.20;15.93;;;;;;;;;;10408152;28;20720;-76
2024/01/11 22:26:49;;;;;;;34.28;16.23;;;;;;;;;;10407906;28;20053;-76
2024/01/11 22:31:52;;;;;;;37.00;17.10;;;;;;;;;;10407153;28;20602;-76
2024/01/11 22:36:57;;;;;;;33.95;16.20;;;;;;;;;;10406552;28;20049;-75
2024/01/11 22:42:00;;;;;;;35.20;15.55;;;;;;;;;;10409299;28;20037;-76
2024/01/11 22:47:04;;;;;;;32.08;16.63;;;;;;;;;;10403171;28;20064;-76
2024/01/11 22:52:09;;;;;;;35.75;16.13;;;;;;;;;;10401137;28;20061;-76
2024/01/11 22:57:14;;;;;;;32.65;15.02;;;;;;;;;;10403355;28;20554;-76
2024/01/11 23:02:17;;;;;;;32.78;15.98;;;;;;;;;;10401162;28;20050;-76
2024/01/11 23:07:22;;;;;;;38.63;17.13;;;;;;;;;;10412448;22;20733;-76
2024/01/11 23:12:25;;;;;;;37.53;18.08;;;;;;;;;;10391062;28;20487;-76
2024/01/11 23:17:28;;;;;;;41.55;19.45;;;;;;;;;;10390285;28;20738;-76
2024/01/11 23:22:33;;;;;;;41.22;18.30;;;;;;;;;;10391013;28;20029;-76
2024/01/11 23:27:36;;;;;;;31.05;17.17;;;;;;;;;;10391630;28;20244;-76
2024/01/11 23:32:40;;;;;;;36.08;17.92;;;;;;;;;;10394929;28;20045;-76
2024/01/11 23:37:45;;;;;;;35.20;17.30;;;;;;;;;;10394683;28;20116;-77
2024/01/11 23:42:48;;;;;;;35.00;17.60;;;;;;;;;;10393015;28;20041;-76
2024/01/11 23:47:51;;;;;;;39.40;17.80;;;;;;;;;;10399600;28;20042;-76
2024/01/11 23:52:56;;;;;;;37.33;17.67;;;;;;;;;;10396453;28;20568;-76
2024/01/11 23:57:59;;;;;;;40.42;18.02;;;;;;;;;;10385707;28;20133;-76
